createdAt,value
2023-05-04T00:02:45.521Z,12.30
2023-05-04T00:05:30.874Z,12.40
2023-05-04T00:08:16.210Z,12.50
2023-05-04T00:11:02.065Z,12.30
2023-05-04T00:13:47.413Z,12.20
2023-05-04T00:16:33.128Z,12.10
2023-05-04T00:19:19.298Z,12.10
2023-05-04T00:22:04.633Z,12.00
2023-05-04T00:24:50.145Z,12.00
2023-05-04T00:27:35.603Z,11.90
2023-05-04T00:30:21.087Z,12.00
2023-05-04T00:33:06.415Z,11.90
2023-05-04T00:35:51.700Z,12.00
2023-05-04T00:38:51.268Z,12.10
2023-05-04T00:41:36.786Z,12.20
2023-05-04T00:44:23.837Z,12.20
2023-05-04T00:47:09.597Z,12.20
2023-05-04T00:49:55.216Z,12.10
2023-05-04T00:52:43.345Z,12.10
2023-05-04T00:55:29.503Z,12.00
2023-05-04T00:58:15.092Z,12.00
2023-05-04T01:01:01.100Z,12.00
2023-05-04T01:03:46.289Z,11.90
2023-05-04T01:07:06.055Z,11.90
2023-05-04T01:09:59.543Z,11.80
2023-05-04T01:12:55.645Z,11.90
2023-05-04T01:15:41.955Z,11.80
2023-05-04T01:18:27.388Z,11.80
2023-05-04T01:21:12.537Z,11.70
2023-05-04T01:23:58.936Z,11.70
2023-05-04T01:26:46.448Z,11.70
2023-05-04T01:30:00.058Z,11.70
2023-05-04T01:32:46.674Z,11.70
2023-05-04T01:35:32.074Z,11.70
2023-05-04T01:38:17.610Z,11.70
2023-05-04T01:41:03.034Z,11.60
2023-05-04T01:43:49.319Z,11.60
2023-05-04T01:46:35.157Z,11.50
2023-05-04T01:49:20.426Z,11.50
2023-05-04T01:52:05.890Z,11.50
2023-05-04T01:54:51.436Z,11.40
2023-05-04T01:57:36.618Z,11.40
2023-05-04T02:00:22.520Z,11.40
2023-05-04T02:03:09.416Z,11.40
2023-05-04T02:05:55.180Z,11.50
2023-05-04T02:08:42.433Z,11.50
2023-05-04T02:11:27.560Z,11.40
2023-05-04T02:14:13.205Z,11.30
2023-05-04T02:16:58.620Z,11.20
2023-05-04T02:19:44.046Z,11.20
2023-05-04T02:22:29.442Z,11.20
2023-05-04T02:25:14.900Z,11.20
2023-05-04T02:28:00.778Z,11.10
2023-05-04T02:30:45.873Z,11.10
2023-05-04T02:33:31.264Z,11.10
2023-05-04T02:36:16.721Z,10.90
2023-05-04T02:39:02.253Z,10.90
2023-05-04T02:41:47.681Z,10.90
2023-05-04T02:44:32.952Z,10.80
2023-05-04T02:47:18.293Z,10.90
2023-05-04T02:50:04.397Z,10.80
2023-05-04T02:52:49.587Z,10.70
2023-05-04T02:55:35.062Z,10.70
2023-05-04T02:58:20.323Z,10.60
2023-05-04T03:01:05.914Z,10.60
2023-05-04T03:03:51.417Z,10.70
2023-05-04T03:06:36.623Z,10.70
2023-05-04T03:09:21.900Z,10.70
2023-05-04T03:12:07.290Z,10.70
2023-05-04T03:14:53.007Z,10.70
2023-05-04T03:17:38.486Z,10.70
2023-05-04T03:20:24.448Z,10.50
2023-05-04T03:23:09.757Z,10.50
2023-05-04T03:25:55.093Z,10.50
2023-05-04T03:28:40.610Z,10.50
2023-05-04T03:31:26.170Z,10.50
2023-05-04T03:34:12.700Z,10.60
2023-05-04T03:36:58.385Z,10.50
2023-05-04T03:39:43.655Z,10.60
2023-05-04T03:42:29.079Z,10.50
2023-05-04T03:45:14.434Z,10.50
2023-05-04T03:48:00.215Z,10.50
2023-05-04T03:50:45.878Z,10.40
2023-05-04T03:53:31.103Z,10.30
2023-05-04T03:56:16.570Z,10.30
2023-05-04T03:59:01.875Z,10.30
2023-05-04T04:01:47.122Z,10.30
2023-05-04T04:04:32.480Z,10.30
2023-05-04T04:07:17.905Z,10.40
2023-05-04T04:10:03.722Z,10.40
2023-05-04T04:12:49.926Z,10.40
2023-05-04T04:15:35.520Z,10.40
2023-05-04T04:18:22.672Z,10.20
2023-05-04T04:21:07.820Z,10.20
2023-05-04T04:23:53.886Z,10.10
2023-05-04T04:26:39.371Z,10.20
2023-05-04T04:29:24.770Z,10.20
2023-05-04T04:32:10.500Z,10.20
2023-05-04T04:34:55.652Z,10.20
2023-05-04T04:37:41.185Z,10.30
2023-05-04T04:40:26.605Z,10.30
2023-05-04T04:43:12.284Z,10.30
2023-05-04T04:45:57.452Z,10.30
2023-05-04T04:48:42.737Z,10.80
2023-05-04T04:51:28.186Z,11.20
2023-05-04T04:54:13.561Z,11.40
2023-05-04T04:56:59.548Z,11.50
2023-05-04T04:59:44.911Z,11.60
2023-05-04T05:02:30.400Z,11.70
2023-05-04T05:05:16.020Z,11.70
2023-05-04T05:08:01.484Z,11.80
2023-05-04T05:10:46.717Z,11.70
2023-05-04T05:13:32.382Z,11.80
2023-05-04T05:16:17.851Z,11.90
2023-05-04T05:19:03.420Z,12.00
2023-05-04T05:21:49.294Z,11.90
2023-05-04T05:24:34.670Z,12.00
2023-05-04T05:27:20.007Z,12.00
2023-05-04T05:30:06.372Z,12.00
2023-05-04T05:32:53.618Z,12.10
2023-05-04T05:35:39.698Z,12.10
2023-05-04T05:38:26.860Z,12.00
2023-05-04T05:41:12.244Z,12.10
2023-05-04T05:43:58.649Z,12.10
2023-05-04T05:46:44.105Z,12.20
2023-05-04T05:49:29.857Z,12.20
2023-05-04T05:52:15.257Z,12.20
2023-05-04T05:55:02.685Z,12.20
2023-05-04T05:57:48.126Z,12.30
2023-05-04T06:00:33.454Z,12.40
2023-05-04T06:03:19.258Z,12.40
2023-05-04T06:06:04.376Z,12.40
2023-05-04T06:08:49.788Z,12.40
2023-05-04T06:11:35.119Z,12.40
2023-05-04T06:14:20.497Z,12.40
2023-05-04T06:17:05.960Z,12.40
2023-05-04T06:19:51.504Z,12.40
2023-05-04T06:22:36.787Z,12.40
2023-05-04T06:25:22.177Z,12.40
2023-05-04T06:28:07.726Z,12.40
2023-05-04T06:30:52.762Z,12.40
2023-05-04T06:33:38.844Z,12.30
2023-05-04T06:36:26.016Z,12.20
2023-05-04T06:39:11.326Z,12.10
2023-05-04T06:41:57.111Z,12.20
2023-05-04T06:44:42.172Z,12.40
2023-05-04T06:47:27.734Z,12.50
2023-05-04T06:50:13.717Z,12.50
2023-05-04T06:53:04.264Z,12.60
2023-05-04T06:55:49.925Z,12.70
2023-05-04T06:58:35.664Z,12.80
2023-05-04T07:01:20.987Z,13.00
2023-05-04T07:04:06.675Z,13.10
2023-05-04T07:06:52.203Z,13.10
2023-05-04T07:09:37.636Z,13.10
2023-05-04T07:12:23.025Z,13.20
2023-05-04T07:15:09.645Z,13.30
2023-05-04T07:17:54.687Z,13.30
2023-05-04T07:20:42.551Z,13.40
2023-05-04T07:23:27.665Z,13.40
2023-05-04T07:26:13.128Z,13.50
2023-05-04T07:28:58.490Z,13.50
2023-05-04T07:31:43.745Z,13.60
2023-05-04T07:34:44.500Z,13.70
2023-05-04T07:37:31.322Z,13.80
2023-05-04T07:40:16.993Z,13.80
2023-05-04T07:43:02.259Z,13.90
2023-05-04T07:45:48.096Z,14.10
2023-05-04T07:48:34.542Z,14.10
2023-05-04T07:51:19.950Z,14.20
2023-05-04T07:54:05.784Z,14.40
2023-05-04T07:56:51.192Z,14.40
2023-05-04T07:59:36.620Z,14.50
2023-05-04T08:02:22.786Z,14.50
2023-05-04T08:05:08.482Z,14.70
2023-05-04T08:07:53.909Z,14.80
2023-05-04T08:10:39.558Z,15.00
2023-05-04T08:13:24.688Z,15.10
2023-05-04T08:16:10.804Z,15.10
2023-05-04T08:19:00.040Z,15.30
2023-05-04T08:21:45.043Z,15.40
2023-05-04T08:24:30.593Z,15.70
2023-05-04T08:27:16.258Z,15.70
2023-05-04T08:30:01.412Z,15.80
2023-05-04T08:32:47.017Z,15.90
2023-05-04T08:35:32.018Z,16.10
2023-05-04T08:38:17.364Z,16.20
2023-05-04T08:41:06.610Z,16.30
2023-05-04T08:43:52.099Z,16.50
2023-05-04T08:46:41.132Z,16.70
2023-05-04T08:49:26.961Z,16.60
2023-05-04T08:52:13.565Z,16.80
2023-05-04T08:54:59.112Z,17.00
2023-05-04T08:57:44.755Z,17.10
2023-05-04T09:00:30.386Z,17.00
2023-05-04T09:03:16.535Z,17.00
2023-05-04T09:06:02.588Z,17.00
2023-05-04T09:08:47.954Z,17.10
2023-05-04T09:11:33.446Z,17.00
2023-05-04T09:14:18.790Z,17.10
2023-05-04T09:17:13.558Z,17.20
2023-05-04T09:20:00.389Z,17.50
2023-05-04T09:22:45.837Z,17.60
2023-05-04T09:25:31.091Z,17.80
2023-05-04T09:28:18.142Z,17.70
2023-05-04T09:31:04.166Z,17.80
2023-05-04T09:33:51.464Z,17.80
2023-05-04T09:36:38.546Z,18.10
2023-05-04T09:39:23.822Z,18.10
2023-05-04T09:42:16.954Z,18.30
2023-05-04T09:45:10.020Z,18.40
2023-05-04T09:47:55.578Z,18.80
2023-05-04T09:50:55.031Z,18.90
2023-05-04T09:53:42.358Z,19.10
2023-05-04T09:56:37.625Z,18.90
2023-05-04T09:59:30.423Z,19.00
2023-05-04T10:02:22.543Z,19.10
2023-05-04T10:05:11.683Z,19.40
2023-05-04T10:08:00.553Z,19.40
2023-05-04T10:10:46.205Z,19.30
2023-05-04T10:13:31.592Z,19.60
2023-05-04T10:16:44.995Z,19.80
2023-05-04T10:20:00.906Z,19.80
2023-05-04T10:23:01.163Z,19.60
2023-05-04T10:26:00.027Z,19.80
2023-05-04T10:29:24.076Z,20.20
2023-05-04T10:32:21.033Z,20.50
2023-05-04T10:35:07.736Z,20.50
2023-05-04T10:37:54.684Z,20.90
2023-05-04T10:40:41.558Z,21.00
2023-05-04T10:43:28.908Z,21.10
2023-05-04T10:46:21.441Z,21.00
2023-05-04T10:49:16.287Z,21.00
2023-05-04T10:52:05.792Z,21.40
2023-05-04T10:55:00.029Z,21.60
2023-05-04T10:57:56.220Z,21.60
2023-05-04T11:00:44.714Z,21.50
2023-05-04T11:03:41.104Z,21.90
2023-05-04T11:06:26.393Z,22.10
2023-05-04T11:09:13.636Z,22.00
2023-05-04T11:11:58.787Z,22.10
2023-05-04T11:14:44.312Z,22.20
2023-05-04T11:17:29.691Z,22.00
2023-05-04T11:20:27.837Z,22.10
2023-05-04T11:23:16.417Z,22.00
2023-05-04T11:26:07.420Z,22.00
2023-05-04T11:28:53.894Z,21.80
2023-05-04T11:31:39.747Z,21.90
2023-05-04T11:34:25.352Z,22.30
2023-05-04T11:37:10.868Z,22.20
2023-05-04T11:39:58.016Z,22.20
2023-05-04T11:42:43.961Z,22.10
2023-05-04T11:45:34.823Z,22.50
2023-05-04T11:48:20.097Z,22.90
2023-05-04T11:51:06.520Z,22.70
2023-05-04T11:53:54.136Z,22.40
2023-05-04T11:56:42.742Z,22.70
2023-05-04T11:59:28.171Z,22.80
2023-05-04T12:02:17.387Z,23.00
2023-05-04T12:05:03.390Z,22.90
2023-05-04T12:07:48.754Z,23.30
2023-05-04T12:10:35.128Z,23.10
2023-05-04T12:13:20.322Z,23.40
2023-05-04T12:16:18.070Z,23.40
2023-05-04T12:19:12.405Z,23.10
2023-05-04T12:21:58.809Z,23.20
2023-05-04T12:24:44.219Z,23.30
2023-05-04T12:27:29.608Z,23.20
2023-05-04T12:30:15.413Z,23.30
2023-05-04T12:33:00.508Z,23.50
2023-05-04T12:35:46.279Z,23.50
2023-05-04T12:38:31.937Z,23.70
2023-05-04T12:41:17.421Z,23.80
2023-05-04T12:44:02.915Z,23.90
2023-05-04T12:46:48.340Z,23.70
2023-05-04T12:49:33.841Z,23.40
2023-05-04T12:52:19.278Z,23.10
2023-05-04T12:55:05.241Z,23.10
2023-05-04T12:57:50.943Z,23.20
2023-05-04T13:00:37.728Z,23.40
2023-05-04T13:03:23.506Z,23.20
2023-05-04T13:06:09.079Z,22.90
2023-05-04T13:08:54.613Z,22.80
2023-05-04T13:11:39.873Z,22.90
2023-05-04T13:14:25.257Z,22.80
2023-05-04T13:17:10.660Z,22.60
2023-05-04T13:19:56.024Z,22.70
2023-05-04T13:22:41.534Z,22.70
2023-05-04T13:25:27.002Z,22.80
2023-05-04T13:28:12.404Z,22.90
2023-05-04T13:30:57.980Z,22.90
2023-05-04T13:33:44.704Z,22.90
2023-05-04T13:36:30.321Z,22.90
2023-05-04T13:39:15.858Z,23.00
2023-05-04T13:42:01.542Z,23.00
2023-05-04T13:44:47.432Z,23.10
2023-05-04T13:47:34.186Z,23.20
2023-05-04T13:50:19.793Z,22.90
2023-05-04T13:53:05.452Z,23.00
2023-05-04T13:55:50.919Z,23.10
2023-05-04T13:58:36.264Z,23.00
2023-05-04T14:01:23.465Z,22.90
2023-05-04T14:04:09.994Z,22.90
2023-05-04T14:06:56.893Z,22.90
2023-05-04T14:09:42.423Z,23.00
2023-05-04T14:12:28.756Z,22.80
2023-05-04T14:15:16.424Z,22.90
2023-05-04T14:18:01.865Z,23.10
2023-05-04T14:20:48.505Z,23.30
2023-05-04T14:23:33.686Z,23.40
2023-05-04T14:26:19.570Z,23.60
2023-05-04T14:29:05.143Z,23.60
2023-05-04T14:31:50.333Z,23.70
2023-05-04T14:34:36.513Z,23.60
2023-05-04T14:37:21.774Z,23.50
2023-05-04T14:40:11.203Z,23.50
2023-05-04T14:42:57.619Z,23.80
2023-05-04T14:45:42.761Z,23.90
2023-05-04T14:48:28.519Z,23.70
2023-05-04T14:51:13.939Z,23.60
2023-05-04T14:53:59.608Z,23.90
2023-05-04T14:56:45.057Z,24.00
2023-05-04T14:59:30.328Z,24.20
2023-05-04T15:02:16.141Z,24.00
2023-05-04T15:05:02.434Z,24.20
2023-05-04T15:07:47.970Z,24.50
2023-05-04T15:10:33.996Z,24.60
2023-05-04T15:13:19.994Z,24.60
2023-05-04T15:16:05.526Z,24.50
2023-05-04T15:18:50.759Z,24.30
2023-05-04T15:21:36.098Z,24.40
2023-05-04T15:24:21.477Z,24.40
2023-05-04T15:27:07.014Z,24.50
2023-05-04T15:29:52.316Z,24.40
2023-05-04T15:32:37.887Z,24.30
2023-05-04T15:35:23.242Z,24.30
2023-05-04T15:38:08.724Z,24.40
2023-05-04T15:40:54.192Z,24.70
2023-05-04T15:43:39.457Z,24.40
2023-05-04T15:46:24.826Z,24.00
2023-05-04T15:49:10.258Z,23.90
2023-05-04T15:51:55.984Z,23.90
2023-05-04T15:54:41.177Z,23.90
2023-05-04T15:57:27.093Z,23.90
2023-05-04T16:00:14.316Z,23.80
2023-05-04T16:02:59.876Z,24.10
2023-05-04T16:05:45.155Z,24.20
2023-05-04T16:08:30.563Z,24.00
2023-05-04T16:11:16.146Z,24.00
2023-05-04T16:14:01.755Z,23.90
2023-05-04T16:16:46.958Z,23.90
2023-05-04T16:19:32.577Z,23.80
2023-05-04T16:22:17.775Z,24.00
2023-05-04T16:25:03.182Z,24.20
2023-05-04T16:27:48.729Z,24.00
2023-05-04T16:30:34.314Z,23.90
2023-05-04T16:33:19.876Z,24.00
2023-05-04T16:36:06.625Z,24.20
2023-05-04T16:38:52.199Z,24.40
2023-05-04T16:41:37.277Z,24.20
2023-05-04T16:44:22.518Z,23.90
2023-05-04T16:47:08.270Z,23.90
2023-05-04T16:49:53.267Z,23.90
2023-05-04T16:52:39.733Z,24.00
2023-05-04T16:55:26.864Z,24.00
2023-05-04T16:58:11.985Z,24.00
2023-05-04T17:00:58.322Z,23.90
2023-05-04T17:03:43.475Z,23.80
2023-05-04T17:06:28.697Z,23.70
2023-05-04T17:09:14.218Z,23.60
2023-05-04T17:11:59.560Z,23.50
2023-05-04T17:14:46.002Z,23.40
2023-05-04T17:17:31.532Z,23.30
2023-05-04T17:20:16.956Z,23.30
2023-05-04T17:23:02.454Z,23.40
2023-05-04T17:25:47.929Z,23.30
2023-05-04T17:28:32.940Z,23.20
2023-05-04T17:31:18.420Z,23.20
2023-05-04T17:34:03.767Z,23.20
2023-05-04T17:36:49.316Z,23.00
2023-05-04T17:39:34.732Z,22.90
2023-05-04T17:42:20.104Z,22.90
2023-05-04T17:45:06.318Z,22.80
2023-05-04T17:47:51.942Z,22.70
2023-05-04T17:50:37.826Z,22.60
2023-05-04T17:53:23.034Z,22.50
2023-05-04T17:56:08.520Z,22.30
2023-05-04T17:58:54.012Z,22.20
2023-05-04T18:01:39.456Z,22.10
2023-05-04T18:04:24.829Z,22.10
2023-05-04T18:07:10.305Z,21.90
2023-05-04T18:09:56.078Z,21.80
2023-05-04T18:12:41.251Z,21.70
2023-05-04T18:15:26.938Z,21.50
2023-05-04T18:18:12.072Z,21.40
2023-05-04T18:20:58.491Z,21.30
2023-05-04T18:23:43.768Z,21.20
2023-05-04T18:26:29.208Z,21.10
2023-05-04T18:29:18.930Z,21.00
2023-05-04T18:32:07.972Z,20.90
2023-05-04T18:34:54.673Z,20.80
2023-05-04T18:37:39.776Z,20.70
2023-05-04T18:40:25.589Z,20.60
2023-05-04T18:43:11.164Z,20.50
2023-05-04T18:45:56.537Z,20.40
2023-05-04T18:48:42.112Z,20.20
2023-05-04T18:51:27.895Z,20.20
2023-05-04T18:54:15.240Z,20.10
2023-05-04T18:57:01.054Z,20.10
2023-05-04T18:59:46.257Z,20.00
2023-05-04T19:02:32.559Z,19.90
2023-05-04T19:05:17.927Z,19.90
2023-05-04T19:08:03.280Z,19.90
2023-05-04T19:10:49.328Z,19.80
2023-05-04T19:13:34.592Z,19.80
2023-05-04T19:16:20.194Z,19.70
2023-05-04T19:19:06.113Z,19.70
2023-05-04T19:21:52.393Z,19.60
2023-05-04T19:24:38.121Z,19.60
2023-05-04T19:27:23.233Z,19.50
2023-05-04T19:30:09.266Z,19.40
2023-05-04T19:32:54.898Z,19.40
2023-05-04T19:35:40.513Z,19.40
2023-05-04T19:38:26.041Z,19.40
2023-05-04T19:41:11.535Z,19.30
2023-05-04T19:43:57.013Z,19.30
2023-05-04T19:46:44.674Z,19.30
2023-05-04T19:49:29.843Z,19.20
2023-05-04T19:52:15.715Z,19.10
2023-05-04T19:55:01.000Z,19.00
2023-05-04T19:57:47.625Z,19.00
2023-05-04T20:00:33.069Z,18.80
2023-05-04T20:03:18.651Z,18.70
2023-05-04T20:06:04.432Z,18.70
2023-05-04T20:08:49.682Z,18.60
2023-05-04T20:11:36.105Z,18.50
2023-05-04T20:14:21.474Z,18.40
2023-05-04T20:17:06.854Z,18.30
2023-05-04T20:19:52.269Z,18.20
2023-05-04T20:22:38.361Z,18.10
2023-05-04T20:25:23.779Z,18.00
2023-05-04T20:28:09.241Z,17.90
2023-05-04T20:30:54.597Z,17.80
2023-05-04T20:33:39.994Z,17.80
2023-05-04T20:36:25.955Z,17.70
2023-05-04T20:39:11.441Z,17.80
2023-05-04T20:41:57.978Z,17.80
2023-05-04T20:44:43.336Z,17.90
2023-05-04T20:47:28.573Z,17.80
2023-05-04T20:50:16.416Z,17.90
2023-05-04T20:53:02.072Z,18.00
2023-05-04T20:55:47.491Z,18.00
2023-05-04T20:58:33.355Z,18.10
2023-05-04T21:01:19.039Z,18.20
2023-05-04T21:04:04.592Z,18.10
2023-05-04T21:06:50.063Z,18.20
2023-05-04T21:09:35.528Z,18.10
2023-05-04T21:12:20.917Z,18.10
2023-05-04T21:15:06.370Z,18.10
2023-05-04T21:17:51.757Z,18.10
2023-05-04T21:20:36.968Z,18.10
2023-05-04T21:23:23.643Z,18.10
2023-05-04T21:26:08.778Z,18.10
2023-05-04T21:28:53.955Z,18.10
2023-05-04T21:31:39.936Z,18.00
2023-05-04T21:34:25.433Z,17.80
2023-05-04T21:37:10.969Z,17.80
2023-05-04T21:39:56.578Z,17.70
2023-05-04T21:42:41.860Z,17.70
2023-05-04T21:45:27.541Z,17.70
2023-05-04T21:48:12.632Z,17.60
2023-05-04T21:50:58.013Z,17.50
2023-05-04T21:53:43.779Z,17.50
2023-05-04T21:56:29.376Z,17.40
2023-05-04T21:59:14.654Z,17.30
2023-05-04T22:02:00.037Z,17.20
2023-05-04T22:04:45.618Z,17.10
2023-05-04T22:07:31.072Z,17.10
2023-05-04T22:10:16.560Z,17.10
2023-05-04T22:13:02.153Z,17.00
2023-05-04T22:15:50.566Z,17.00
2023-05-04T22:18:36.255Z,16.90
2023-05-04T22:21:21.653Z,16.80
2023-05-04T22:24:07.132Z,16.80
2023-05-04T22:26:52.830Z,16.80
2023-05-04T22:29:38.260Z,16.80
2023-05-04T22:32:23.709Z,16.80
2023-05-04T22:35:09.429Z,16.70
2023-05-04T22:37:54.895Z,16.80
2023-05-04T22:40:42.617Z,16.70
2023-05-04T22:43:28.097Z,16.70
2023-05-04T22:46:19.494Z,16.70
2023-05-04T22:49:05.340Z,16.70
2023-05-04T22:51:51.827Z,16.60
2023-05-04T22:54:37.231Z,16.60
2023-05-04T22:57:22.735Z,16.50
2023-05-04T23:00:09.238Z,16.50
2023-05-04T23:02:57.488Z,16.50
2023-05-04T23:05:42.720Z,16.40
2023-05-04T23:08:28.133Z,16.40
2023-05-04T23:11:13.443Z,16.30
2023-05-04T23:13:59.257Z,16.10
2023-05-04T23:16:44.356Z,16.20
2023-05-04T23:19:30.102Z,16.20
2023-05-04T23:22:15.428Z,16.20
2023-05-04T23:25:00.954Z,16.20
2023-05-04T23:27:45.975Z,16.30
2023-05-04T23:30:31.346Z,16.30
2023-05-04T23:33:16.822Z,16.20
2023-05-04T23:36:02.676Z,16.20
2023-05-04T23:38:48.054Z,16.10
2023-05-04T23:41:33.396Z,16.10
2023-05-04T23:44:18.746Z,16.00
2023-05-04T23:47:04.245Z,16.10
2023-05-04T23:49:50.063Z,16.10
2023-05-04T23:52:35.559Z,16.00
2023-05-04T23:55:21.024Z,15.90
2023-05-04T23:58:06.620Z,15.80
